createdAt,value
2022-08-19T00:02:13.574Z,10.40
2022-08-19T00:04:43.416Z,10.20
2022-08-19T00:07:13.300Z,10.10
2022-08-19T00:09:43.089Z,10.43
2022-08-19T00:12:13.436Z,9.28
2022-08-19T00:14:43.553Z,9.77
2022-08-19T00:17:13.916Z,10.00
2022-08-19T00:19:43.435Z,11.20
2022-08-19T00:22:12.913Z,11.25
2022-08-19T00:24:44.437Z,10.33
2022-08-19T00:27:26.238Z,10.53
2022-08-19T00:29:52.447Z,10.47
2022-08-19T00:32:19.419Z,10.30
2022-08-19T00:34:49.206Z,9.77
2022-08-19T00:37:18.986Z,9.60
2022-08-19T00:39:49.059Z,9.53
2022-08-19T00:42:20.230Z,9.70
2022-08-19T00:44:51.333Z,10.03
2022-08-19T00:47:21.109Z,9.60
2022-08-19T00:49:54.018Z,9.17
2022-08-19T00:52:33.300Z,10.05
2022-08-19T00:55:04.715Z,9.77
2022-08-19T00:57:40.138Z,10.35
2022-08-19T01:00:14.808Z,10.86
2022-08-19T01:02:45.321Z,10.10
2022-08-19T01:05:19.458Z,10.95
2022-08-19T01:07:51.779Z,10.17
2022-08-19T01:10:24.535Z,11.63
2022-08-19T01:12:55.851Z,9.87
2022-08-19T01:15:31.418Z,8.68
2022-08-19T01:18:04.010Z,10.40
2022-08-19T01:20:35.227Z,10.97
2022-08-19T01:23:05.776Z,10.60
2022-08-19T01:25:38.925Z,11.08
2022-08-19T01:28:32.198Z,10.58
2022-08-19T01:30:51.585Z,12.60
2022-08-19T01:33:21.535Z,11.87
2022-08-19T01:35:52.342Z,12.87
2022-08-19T01:38:28.011Z,12.98
2022-08-19T01:40:57.489Z,11.73
2022-08-19T01:43:27.562Z,12.97
2022-08-19T01:45:57.411Z,12.13
2022-08-19T01:48:27.558Z,13.22
2022-08-19T01:50:57.499Z,12.87
2022-08-19T01:53:33.549Z,14.63
2022-08-19T01:55:59.810Z,17.37
2022-08-19T01:58:33.313Z,16.40
2022-08-19T02:01:03.679Z,17.53
2022-08-19T02:03:33.507Z,15.10
2022-08-19T02:06:05.988Z,15.20
2022-08-19T02:08:38.958Z,15.10
2022-08-19T02:11:09.299Z,15.40
2022-08-19T02:13:39.045Z,17.20
2022-08-19T02:16:11.355Z,18.50
2022-08-19T02:18:41.137Z,16.77
2022-08-19T02:21:11.738Z,16.33
2022-08-19T02:23:41.526Z,16.97
2022-08-19T02:26:13.250Z,17.98
2022-08-19T02:28:44.065Z,17.00
2022-08-19T02:31:16.287Z,14.90
2022-08-19T02:33:47.282Z,16.37
2022-08-19T02:36:20.591Z,17.33
2022-08-19T02:38:55.025Z,18.40
2022-08-19T02:41:26.806Z,15.70
2022-08-19T02:44:30.112Z,16.60
2022-08-19T02:46:34.889Z,16.20
2022-08-19T02:49:07.010Z,17.10
2022-08-19T02:51:42.431Z,18.37
2022-08-19T02:54:14.567Z,20.27
2022-08-19T02:56:46.042Z,18.83
2022-08-19T02:59:15.874Z,20.83
2022-08-19T03:01:45.691Z,18.80
2022-08-19T03:04:16.796Z,21.57
2022-08-19T03:06:49.319Z,18.77
2022-08-19T03:09:21.250Z,19.87
2022-08-19T03:11:52.694Z,20.00
2022-08-19T03:14:24.065Z,19.77
2022-08-19T03:16:54.525Z,19.63
2022-08-19T03:19:24.051Z,19.70
2022-08-19T03:21:54.233Z,19.00
2022-08-19T03:24:24.115Z,19.67
2022-08-19T03:29:48.783Z,19.33
2022-08-19T03:32:32.142Z,18.33
2022-08-19T03:34:51.810Z,20.30
2022-08-19T03:37:21.652Z,22.33
2022-08-19T03:39:51.513Z,22.67
2022-08-19T03:42:38.608Z,22.15
2022-08-19T03:44:53.468Z,21.67
2022-08-19T03:47:23.309Z,21.77
2022-08-19T03:49:53.165Z,21.57
2022-08-19T03:52:22.730Z,21.73
2022-08-19T03:54:52.567Z,22.20
2022-08-19T03:57:27.811Z,23.37
2022-08-19T03:59:53.840Z,24.13
2022-08-19T04:02:23.355Z,21.12
2022-08-19T04:04:56.007Z,23.73
2022-08-19T04:07:25.789Z,23.50
2022-08-19T04:09:55.626Z,22.10
2022-08-19T04:12:25.423Z,21.02
2022-08-19T04:14:55.213Z,21.30
2022-08-19T04:17:24.994Z,21.33
2022-08-19T04:19:55.124Z,22.37
2022-08-19T04:22:24.897Z,21.82
2022-08-19T04:24:56.369Z,21.07
2022-08-19T04:27:27.375Z,22.33
2022-08-19T04:29:57.167Z,19.00
2022-08-19T04:32:26.778Z,20.40
2022-08-19T04:35:02.460Z,19.82
2022-08-19T04:37:35.321Z,19.90
2022-08-19T04:40:21.068Z,18.40
2022-08-19T04:42:50.867Z,19.97
2022-08-19T04:45:22.841Z,18.32
2022-08-19T04:47:58.996Z,19.43
2022-08-19T04:50:29.318Z,19.87
2022-08-19T04:52:59.109Z,19.93
2022-08-19T04:55:29.271Z,20.20
2022-08-19T04:57:59.126Z,20.27
2022-08-19T05:00:29.652Z,22.50
2022-08-19T05:02:59.446Z,25.07
2022-08-19T05:05:31.974Z,24.63
2022-08-19T05:08:03.537Z,23.30
2022-08-19T05:10:33.611Z,24.05
2022-08-19T05:13:03.564Z,23.97
2022-08-19T05:15:33.716Z,24.67
2022-08-19T05:18:21.402Z,23.53
2022-08-19T05:21:08.901Z,24.35
2022-08-19T05:23:39.075Z,24.30
2022-08-19T05:26:11.873Z,24.30
2022-08-19T05:28:41.674Z,24.03
2022-08-19T05:31:11.954Z,26.73
2022-08-19T05:33:42.304Z,26.55
2022-08-19T05:36:12.057Z,25.80
2022-08-19T05:38:42.117Z,27.33
2022-08-19T05:41:14.587Z,26.47
2022-08-19T05:43:44.397Z,28.37
2022-08-19T05:46:19.540Z,31.20
2022-08-19T05:48:51.289Z,31.70
2022-08-19T05:51:27.275Z,31.87
2022-08-19T05:53:54.922Z,35.53
2022-08-19T05:56:24.700Z,35.03
2022-08-19T05:58:55.032Z,36.30
2022-08-19T06:01:24.817Z,37.60
2022-08-19T06:03:55.195Z,37.65
2022-08-19T06:06:24.717Z,35.45
2022-08-19T06:08:54.495Z,34.40
2022-08-19T06:11:27.625Z,34.73
2022-08-19T06:13:59.850Z,35.63
2022-08-19T06:16:31.750Z,37.47
2022-08-19T06:19:02.784Z,37.53
2022-08-19T06:21:33.836Z,38.77
2022-08-19T06:24:03.868Z,38.87
2022-08-19T06:26:35.611Z,39.47
2022-08-19T06:29:07.463Z,39.60
2022-08-19T06:31:37.988Z,39.67
2022-08-19T06:34:10.364Z,39.02
2022-08-19T06:36:45.767Z,39.53
2022-08-19T06:39:21.937Z,40.10
2022-08-19T06:41:56.799Z,37.40
2022-08-19T06:44:27.217Z,38.47
2022-08-19T06:46:57.834Z,38.57
2022-08-19T06:49:29.252Z,38.57
2022-08-19T06:52:02.032Z,36.50
2022-08-19T06:54:32.202Z,35.80
2022-08-19T06:57:04.284Z,37.33
2022-08-19T06:59:34.943Z,36.83
2022-08-19T07:02:07.413Z,38.50
2022-08-19T07:04:42.085Z,37.23
2022-08-19T07:07:20.151Z,36.60
2022-08-19T07:09:55.354Z,36.00
2022-08-19T07:12:18.134Z,35.13
2022-08-19T07:14:48.202Z,33.73
2022-08-19T07:17:19.260Z,35.37
2022-08-19T07:19:50.403Z,34.03
2022-08-19T07:22:21.453Z,34.50
2022-08-19T07:24:51.715Z,32.87
2022-08-19T07:27:24.786Z,35.03
2022-08-19T07:29:56.309Z,34.53
2022-08-19T07:32:27.747Z,35.23
2022-08-19T07:34:58.006Z,35.10
2022-08-19T07:37:33.135Z,37.60
2022-08-19T07:40:02.503Z,39.93
2022-08-19T07:42:32.496Z,38.83
2022-08-19T07:45:02.616Z,39.80
2022-08-19T07:47:50.424Z,40.57
2022-08-19T07:50:08.181Z,39.95
2022-08-19T07:52:40.297Z,40.37
2022-08-19T07:55:40.478Z,39.93
2022-08-19T08:00:17.606Z,36.75
2022-08-19T08:02:47.842Z,35.87
2022-08-19T08:05:39.638Z,36.30
2022-08-19T08:08:27.719Z,35.75
2022-08-19T08:10:57.728Z,34.83
2022-08-19T08:13:27.825Z,32.88
2022-08-19T08:15:58.959Z,31.73
2022-08-19T08:18:30.409Z,30.15
2022-08-19T08:21:00.915Z,27.70
2022-08-19T08:23:32.451Z,25.85
2022-08-19T08:26:03.117Z,28.13
2022-08-19T08:28:32.960Z,26.27
2022-08-19T08:31:02.458Z,26.68
2022-08-19T08:33:35.183Z,27.60
2022-08-19T08:36:06.933Z,26.20
2022-08-19T08:38:41.034Z,26.97
2022-08-19T08:41:32.388Z,26.60
2022-08-19T08:44:04.389Z,24.47
2022-08-19T08:46:42.910Z,25.77
2022-08-19T08:49:31.661Z,24.47
2022-08-19T08:52:07.248Z,27.03
2022-08-19T08:54:49.100Z,23.63
2022-08-19T08:57:19.550Z,23.73
2022-08-19T08:59:52.705Z,21.73
2022-08-19T09:02:22.485Z,22.05
2022-08-19T09:04:53.401Z,21.13
2022-08-19T09:07:34.813Z,19.93
2022-08-19T09:10:12.512Z,18.67
2022-08-19T09:12:51.740Z,20.23
2022-08-19T09:15:28.856Z,18.03
2022-08-19T09:17:56.334Z,20.97
2022-08-19T09:20:26.529Z,23.57
2022-08-19T09:22:56.260Z,21.03
2022-08-19T09:25:27.120Z,21.45
2022-08-19T09:28:02.950Z,22.77
2022-08-19T09:30:32.215Z,22.52
2022-08-19T09:33:02.301Z,22.85
2022-08-19T09:35:32.626Z,22.73
2022-08-19T09:38:06.630Z,21.87
2022-08-19T09:40:38.594Z,19.90
2022-08-19T09:43:09.902Z,18.87
2022-08-19T09:45:39.966Z,20.73
2022-08-19T09:48:11.748Z,20.72
2022-08-19T09:50:51.585Z,20.40
2022-08-19T09:53:13.284Z,20.57
2022-08-19T09:55:46.166Z,20.15
2022-08-19T09:58:15.731Z,20.43
2022-08-19T10:00:51.620Z,20.07
2022-08-19T10:03:18.381Z,19.43
2022-08-19T10:05:55.164Z,21.00
2022-08-19T10:08:26.714Z,21.25
2022-08-19T10:10:59.155Z,20.05
2022-08-19T10:13:31.354Z,18.60
2022-08-19T10:16:09.999Z,19.53
2022-08-19T10:18:44.286Z,18.20
2022-08-19T10:21:20.801Z,16.80
2022-08-19T10:23:52.607Z,18.03
2022-08-19T10:26:28.319Z,17.57
2022-08-19T10:28:59.223Z,17.02
2022-08-19T10:31:59.958Z,18.13
2022-08-19T10:34:04.018Z,16.80
2022-08-19T10:36:37.168Z,18.17
2022-08-19T10:39:13.220Z,16.93
2022-08-19T10:41:44.233Z,18.47
2022-08-19T10:44:16.950Z,17.02
2022-08-19T10:46:48.929Z,19.13
2022-08-19T10:49:20.179Z,19.37
2022-08-19T10:52:10.317Z,18.35
2022-08-19T10:54:57.092Z,17.40
2022-08-19T10:57:46.020Z,18.00
2022-08-19T11:00:00.442Z,16.23
2022-08-19T11:02:30.218Z,19.40
2022-08-19T11:05:04.856Z,18.50
2022-08-19T11:07:31.482Z,18.87
2022-08-19T11:10:01.275Z,17.60
2022-08-19T11:12:31.056Z,17.47
2022-08-19T11:15:01.588Z,17.45
2022-08-19T11:17:32.455Z,17.97
2022-08-19T11:20:03.946Z,17.70
2022-08-19T11:22:39.045Z,18.47
2022-08-19T11:25:08.649Z,16.67
2022-08-19T11:27:44.497Z,18.60
2022-08-19T11:30:16.839Z,17.45
2022-08-19T11:32:49.369Z,20.30
2022-08-19T11:35:20.252Z,19.35
2022-08-19T11:37:50.075Z,19.67
2022-08-19T11:40:19.702Z,19.12
2022-08-19T11:42:59.178Z,19.77
2022-08-19T11:45:30.303Z,18.35
2022-08-19T11:48:00.075Z,18.27
2022-08-19T11:50:29.935Z,17.40
2022-08-19T11:52:59.510Z,17.80
2022-08-19T11:55:29.087Z,17.55
2022-08-19T11:57:58.773Z,18.55
2022-08-19T12:00:28.315Z,20.40
2022-08-19T12:02:58.102Z,19.90
2022-08-19T12:05:27.882Z,20.03
2022-08-19T12:07:57.671Z,18.33
2022-08-19T12:10:27.792Z,18.92
2022-08-19T12:12:58.985Z,18.57
2022-08-19T12:15:37.268Z,20.57
2022-08-19T12:18:01.520Z,21.80
2022-08-19T12:20:35.473Z,20.80
2022-08-19T12:23:06.144Z,21.00
2022-08-19T12:25:35.834Z,20.35
2022-08-19T12:28:06.730Z,20.47
2022-08-19T12:30:39.828Z,21.03
2022-08-19T12:33:09.847Z,20.43
2022-08-19T12:35:45.541Z,19.43
2022-08-19T12:38:15.542Z,20.13
2022-08-19T12:40:51.965Z,17.97
2022-08-19T12:43:22.422Z,17.67
2022-08-19T12:45:52.389Z,18.70
2022-08-19T12:48:33.843Z,19.67
2022-08-19T12:50:55.057Z,21.07
2022-08-19T12:53:25.739Z,19.37
2022-08-19T12:56:00.663Z,19.50
2022-08-19T12:58:30.775Z,20.60
2022-08-19T13:01:00.620Z,20.40
2022-08-19T13:03:30.506Z,19.57
2022-08-19T13:06:00.300Z,19.50
2022-08-19T13:08:31.614Z,21.00
2022-08-19T13:11:11.794Z,19.93
2022-08-19T13:13:44.319Z,19.67
2022-08-19T13:16:15.537Z,20.60
2022-08-19T13:18:49.009Z,16.62
2022-08-19T13:21:20.666Z,19.20
2022-08-19T13:23:53.366Z,17.87
2022-08-19T13:26:23.687Z,16.73
2022-08-19T13:29:11.441Z,16.63
2022-08-19T13:32:00.904Z,18.80
2022-08-19T13:34:36.431Z,18.30
2022-08-19T13:37:07.243Z,19.60
2022-08-19T13:39:37.747Z,19.63
2022-08-19T13:42:11.295Z,17.98
2022-08-19T13:44:41.094Z,18.33
2022-08-19T13:47:12.823Z,19.10
2022-08-19T13:49:42.975Z,18.67
2022-08-19T13:52:13.690Z,17.62
2022-08-19T13:54:44.307Z,17.60
2022-08-19T13:57:15.836Z,17.27
2022-08-19T13:59:45.644Z,19.47
2022-08-19T14:02:15.717Z,20.02
2022-08-19T14:04:45.512Z,20.23
2022-08-19T14:07:15.379Z,21.20
2022-08-19T14:09:45.162Z,19.60
2022-08-19T14:12:18.145Z,19.23
2022-08-19T14:14:49.789Z,19.63
2022-08-19T14:17:19.644Z,19.27
2022-08-19T14:19:49.429Z,17.67
2022-08-19T14:22:22.260Z,18.30
2022-08-19T14:24:51.152Z,18.00
2022-08-19T14:27:20.651Z,17.00
2022-08-19T14:29:50.435Z,13.67
2022-08-19T14:32:20.293Z,11.12
2022-08-19T14:34:50.140Z,14.07
2022-08-19T14:37:20.296Z,15.83
2022-08-19T14:39:50.981Z,16.67
2022-08-19T14:42:20.859Z,19.60
2022-08-19T14:44:50.954Z,19.80
2022-08-19T14:47:20.726Z,22.93
2022-08-19T14:49:52.214Z,23.93
2022-08-19T14:52:22.899Z,21.60
2022-08-19T14:54:52.425Z,21.75
2022-08-19T14:57:22.203Z,18.40
2022-08-19T14:59:52.002Z,16.50
2022-08-19T15:02:34.649Z,14.47
2022-08-19T15:04:58.151Z,14.07
2022-08-19T15:07:24.473Z,13.10
2022-08-19T15:09:56.302Z,11.55
2022-08-19T15:12:26.320Z,9.50
2022-08-19T15:14:57.039Z,9.93
2022-08-19T15:17:43.511Z,9.03
2022-08-19T15:19:58.677Z,8.80
2022-08-19T15:22:28.215Z,9.20
2022-08-19T15:24:58.001Z,8.63
2022-08-19T15:27:28.818Z,9.27
2022-08-19T15:30:01.176Z,9.63
2022-08-19T15:32:31.808Z,6.13
2022-08-19T15:35:03.345Z,3.60
2022-08-19T15:37:36.969Z,2.80
2022-08-19T15:40:08.959Z,2.60
2022-08-19T15:42:41.749Z,2.20
2022-08-19T15:45:13.179Z,1.80
2022-08-19T15:47:43.390Z,1.60
2022-08-19T15:50:17.385Z,1.50
2022-08-19T15:52:52.716Z,1.70
2022-08-19T15:55:33.521Z,1.47
2022-08-19T15:58:24.163Z,1.60
2022-08-19T16:01:03.023Z,1.80
2022-08-19T16:03:50.835Z,1.80
2022-08-19T16:06:27.818Z,1.67
2022-08-19T16:09:01.843Z,1.55
2022-08-19T16:11:39.371Z,1.60
2022-08-19T16:14:09.197Z,2.30
2022-08-19T16:16:39.316Z,2.10
2022-08-19T16:19:12.012Z,2.47
2022-08-19T16:21:42.167Z,2.40
2022-08-19T16:24:14.561Z,2.77
2022-08-19T16:26:46.041Z,2.50
2022-08-19T16:29:22.061Z,2.60
2022-08-19T16:31:49.760Z,3.60
2022-08-19T16:34:19.227Z,2.97
2022-08-19T16:36:49.638Z,3.07
2022-08-19T16:39:19.868Z,3.63
2022-08-19T16:41:49.636Z,4.30
2022-08-19T16:44:20.803Z,4.07
2022-08-19T16:46:57.225Z,4.17
2022-08-19T16:49:53.438Z,3.60
2022-08-19T16:51:56.012Z,3.87
2022-08-19T16:54:30.722Z,4.17
2022-08-19T16:56:58.105Z,3.97
2022-08-19T16:59:28.168Z,3.52
2022-08-19T17:01:57.990Z,4.10
2022-08-19T17:04:27.492Z,4.10
2022-08-19T17:06:57.253Z,4.27
2022-08-19T17:09:27.090Z,5.20
2022-08-19T17:11:58.723Z,4.70
2022-08-19T17:14:28.209Z,4.70
2022-08-19T17:16:57.979Z,5.47
2022-08-19T17:19:28.295Z,4.80
2022-08-19T17:21:58.352Z,5.12
2022-08-19T17:24:27.829Z,5.10
2022-08-19T17:26:57.410Z,4.25
2022-08-19T17:29:27.443Z,3.95
2022-08-19T17:31:57.207Z,4.03
2022-08-19T17:34:26.683Z,4.50
2022-08-19T17:36:59.047Z,4.70
2022-08-19T17:39:29.187Z,4.42
2022-08-19T17:42:02.528Z,5.40
2022-08-19T17:44:30.419Z,4.90
2022-08-19T17:47:00.188Z,5.63
2022-08-19T17:49:29.963Z,5.57
2022-08-19T17:52:01.566Z,5.90
2022-08-19T17:54:33.831Z,6.60
2022-08-19T17:57:02.891Z,7.40
2022-08-19T17:59:32.741Z,7.87
2022-08-19T18:02:02.629Z,8.37
2022-08-19T18:04:33.507Z,8.50
2022-08-19T18:07:04.228Z,9.25
2022-08-19T18:09:41.414Z,9.07
2022-08-19T18:12:11.732Z,9.73
2022-08-19T18:14:42.042Z,9.43
2022-08-19T18:17:13.662Z,8.77
2022-08-19T18:19:44.845Z,9.00
2022-08-19T18:22:26.518Z,10.10
2022-08-19T18:24:58.298Z,9.70
2022-08-19T18:27:28.690Z,9.37
2022-08-19T18:29:59.669Z,8.57
2022-08-19T18:32:36.608Z,9.98
2022-08-19T18:35:11.041Z,9.80
2022-08-19T18:37:42.236Z,9.57
2022-08-19T18:40:37.973Z,11.08
2022-08-19T18:43:15.782Z,10.43
2022-08-19T18:46:03.730Z,9.18
2022-08-19T18:48:53.425Z,10.13
2022-08-19T18:51:28.448Z,9.73
2022-08-19T18:53:58.631Z,8.43
2022-08-19T18:56:32.119Z,8.88
2022-08-19T18:59:02.496Z,9.53
2022-08-19T19:01:38.625Z,9.20
2022-08-19T19:04:11.338Z,9.10
2022-08-19T19:06:42.770Z,9.40
2022-08-19T19:09:18.085Z,9.93
2022-08-19T19:11:51.135Z,9.50
2022-08-19T19:14:48.043Z,9.57
2022-08-19T19:17:01.806Z,8.67
2022-08-19T19:19:33.330Z,9.65
2022-08-19T19:22:04.923Z,8.23
2022-08-19T19:24:36.809Z,9.57
2022-08-19T19:27:08.592Z,9.07
2022-08-19T19:29:39.313Z,9.37
2022-08-19T19:32:14.106Z,7.92
2022-08-19T19:34:43.962Z,9.07
2022-08-19T19:37:13.800Z,9.13
2022-08-19T19:39:46.102Z,8.90
2022-08-19T19:42:20.993Z,8.03
2022-08-19T19:44:54.626Z,7.97
2022-08-19T19:47:25.578Z,8.13
2022-08-19T19:50:14.866Z,7.93
2022-08-19T19:52:27.858Z,7.75
2022-08-19T19:54:57.650Z,6.80
2022-08-19T19:57:29.181Z,7.33
2022-08-19T19:59:59.309Z,7.00
2022-08-19T20:02:29.150Z,7.17
2022-08-19T20:04:59.090Z,6.13
2022-08-19T20:07:46.689Z,5.80
2022-08-19T20:10:17.327Z,5.75
2022-08-19T20:12:47.094Z,5.90
2022-08-19T20:15:16.937Z,5.58
2022-08-19T20:17:47.363Z,5.90
2022-08-19T20:20:19.247Z,5.55
2022-08-19T20:22:49.079Z,5.73
2022-08-19T20:25:22.204Z,6.28
2022-08-19T20:27:52.417Z,5.90
2022-08-19T20:30:24.824Z,6.50
2022-08-19T20:32:56.420Z,6.05
2022-08-19T20:35:26.672Z,6.67
2022-08-19T20:37:58.356Z,5.70
2022-08-19T20:40:29.965Z,6.20
2022-08-19T20:42:59.437Z,5.70
2022-08-19T20:45:33.007Z,6.43
2022-08-19T20:48:02.392Z,6.30
2022-08-19T20:50:34.841Z,5.97
2022-08-19T20:53:16.259Z,6.00
2022-08-19T20:55:50.000Z,6.20
2022-08-19T20:58:21.909Z,5.70
2022-08-19T21:00:56.036Z,5.80
2022-08-19T21:03:28.592Z,6.83
2022-08-19T21:05:58.704Z,6.27
2022-08-19T21:08:28.617Z,6.17
2022-08-19T21:10:59.220Z,5.80
2022-08-19T21:13:29.429Z,6.47
2022-08-19T21:15:59.272Z,6.63
2022-08-19T21:18:28.825Z,6.10
2022-08-19T21:20:59.085Z,6.03
2022-08-19T21:23:30.958Z,5.70
2022-08-19T21:26:01.955Z,6.22
2022-08-19T21:28:35.774Z,5.67
2022-08-19T21:31:03.913Z,6.37
2022-08-19T21:33:34.345Z,5.97
2022-08-19T21:36:07.042Z,6.12
2022-08-19T21:38:37.940Z,6.08
2022-08-19T21:41:08.163Z,6.17
2022-08-19T21:43:38.690Z,6.73
2022-08-19T21:46:10.877Z,6.20
2022-08-19T21:48:41.891Z,6.40
2022-08-19T21:51:11.673Z,6.27
2022-08-19T21:53:41.493Z,5.97
2022-08-19T21:56:12.963Z,6.67
2022-08-19T21:58:42.737Z,6.40
2022-08-19T22:01:12.860Z,6.95
2022-08-19T22:03:43.201Z,6.33
2022-08-19T22:06:12.666Z,6.28
2022-08-19T22:08:44.159Z,7.30
2022-08-19T22:11:13.654Z,7.70
2022-08-19T22:13:43.441Z,7.00
2022-08-19T22:16:14.206Z,6.50
2022-08-19T22:18:44.336Z,7.10
2022-08-19T22:21:14.486Z,7.10
2022-08-19T22:23:47.498Z,6.70
2022-08-19T22:26:18.709Z,6.95
2022-08-19T22:28:48.485Z,7.10
2022-08-19T22:31:19.446Z,7.27
2022-08-19T22:33:49.219Z,6.13
2022-08-19T22:36:19.127Z,7.23
2022-08-19T22:38:48.898Z,7.70
2022-08-19T22:41:18.673Z,7.53
2022-08-19T22:43:48.532Z,7.00
2022-08-19T22:46:18.307Z,8.18
2022-08-19T22:48:55.971Z,8.50
2022-08-19T22:51:38.055Z,7.87
2022-08-19T22:56:37.438Z,9.15
2022-08-19T22:59:08.390Z,8.97
2022-08-19T23:01:38.342Z,8.23
2022-08-19T23:04:09.931Z,8.67
2022-08-19T23:06:42.203Z,8.07
2022-08-19T23:09:16.682Z,7.35
2022-08-19T23:11:43.439Z,8.27
2022-08-19T23:14:14.331Z,8.78
2022-08-19T23:16:50.432Z,8.15
2022-08-19T23:19:17.313Z,8.90
2022-08-19T23:21:47.738Z,8.90
2022-08-19T23:24:17.527Z,9.10
2022-08-19T23:27:05.236Z,9.27
2022-08-19T23:29:55.597Z,9.78
2022-08-19T23:32:25.645Z,8.90
2022-08-19T23:34:57.674Z,9.83
2022-08-19T23:37:29.141Z,10.30
2022-08-19T23:39:58.995Z,8.43
2022-08-19T23:42:28.757Z,9.88
2022-08-19T23:45:03.881Z,9.60
2022-08-19T23:47:34.494Z,9.90
2022-08-19T23:50:07.952Z,9.10
2022-08-19T23:52:46.827Z,9.03
2022-08-19T23:55:18.345Z,10.03
2022-08-19T23:57:47.829Z,9.03
